createdAt,value
2019-05-30T00:00:54.090Z,9.30
2019-05-30T00:03:23.113Z,9.30
2019-05-30T00:05:52.294Z,9.30
2019-05-30T00:08:21.547Z,9.20
2019-05-30T00:10:50.627Z,9.20
2019-05-30T00:13:19.744Z,9.30
2019-05-30T00:15:48.663Z,9.20
2019-05-30T00:18:17.625Z,9.20
2019-05-30T00:20:46.650Z,9.20
2019-05-30T00:23:15.589Z,9.20
2019-05-30T00:25:44.761Z,9.20
2019-05-30T00:28:13.819Z,9.20
2019-05-30T00:30:43.081Z,9.20
2019-05-30T00:33:12.215Z,9.20
2019-05-30T00:35:41.402Z,9.20
2019-05-30T00:38:10.348Z,9.10
2019-05-30T00:40:39.344Z,9.10
2019-05-30T00:43:08.503Z,9.10
2019-05-30T00:45:37.711Z,9.10
2019-05-30T00:48:06.866Z,9.10
2019-05-30T00:50:35.968Z,9.10
2019-05-30T00:53:05.544Z,9.10
2019-05-30T00:55:35.449Z,9.10
2019-05-30T00:58:05.091Z,9.10
2019-05-30T01:00:44.311Z,9.10
2019-05-30T01:03:22.266Z,9.10
2019-05-30T01:06:08.752Z,9.10
2019-05-30T01:08:53.940Z,9.10
2019-05-30T01:18:53.987Z,9.00
2019-05-30T01:22:16.026Z,9.00
2019-05-30T01:25:21.639Z,9.00
2019-05-30T01:27:55.579Z,9.00
2019-05-30T01:30:24.160Z,8.90
2019-05-30T01:32:55.714Z,8.90
2019-05-30T01:35:25.513Z,8.90
2019-05-30T01:37:55.366Z,8.90
2019-05-30T01:40:24.555Z,8.90
2019-05-30T01:42:53.723Z,8.90
2019-05-30T01:45:22.850Z,9.00
2019-05-30T01:47:51.932Z,8.90
2019-05-30T01:50:26.978Z,8.90
2019-05-30T01:55:49.783Z,8.90
2019-05-30T01:58:18.699Z,8.90
2019-05-30T02:00:47.847Z,8.80
2019-05-30T02:03:17.181Z,8.80
2019-05-30T02:05:46.368Z,8.80
2019-05-30T02:08:15.450Z,8.80
2019-05-30T02:10:44.765Z,8.90
2019-05-30T02:13:13.826Z,8.90
2019-05-30T02:15:42.792Z,8.90
2019-05-30T02:18:11.847Z,8.80
2019-05-30T02:20:40.779Z,8.90
2019-05-30T02:23:11.522Z,8.90
2019-05-30T02:25:40.704Z,8.80
2019-05-30T02:28:10.405Z,8.80
2019-05-30T02:30:39.610Z,8.90
2019-05-30T02:33:10.569Z,8.90
2019-05-30T02:35:40.464Z,8.90
2019-05-30T02:38:10.039Z,9.00
2019-05-30T02:40:40.164Z,8.90
2019-05-30T02:43:12.106Z,9.00
2019-05-30T02:45:41.627Z,9.00
2019-05-30T02:48:12.131Z,9.00
2019-05-30T02:50:41.629Z,9.00
2019-05-30T02:53:12.921Z,8.90
2019-05-30T02:55:41.927Z,8.90
2019-05-30T02:58:12.871Z,8.90
2019-05-30T03:00:41.997Z,8.90
2019-05-30T03:03:13.902Z,8.90
2019-05-30T03:05:42.181Z,8.80
2019-05-30T03:08:14.024Z,8.90
2019-05-30T03:10:42.813Z,8.90
2019-05-30T03:13:12.837Z,9.00
2019-05-30T03:15:42.161Z,9.20
2019-05-30T03:18:14.670Z,9.30
2019-05-30T03:20:43.363Z,9.50
2019-05-30T03:23:14.623Z,9.60
2019-05-30T03:25:43.203Z,9.70
2019-05-30T03:28:13.678Z,9.80
2019-05-30T03:30:45.227Z,9.90
2019-05-30T03:33:31.550Z,10.00
2019-05-30T03:35:45.407Z,10.10
2019-05-30T03:38:15.589Z,10.20
2019-05-30T03:40:44.954Z,10.30
2019-05-30T03:43:15.864Z,10.30
2019-05-30T03:45:45.267Z,10.50
2019-05-30T03:48:17.287Z,10.60
2019-05-30T03:50:50.053Z,10.60
2019-05-30T03:53:19.530Z,10.70
2019-05-30T03:55:54.757Z,10.80
2019-05-30T03:58:37.181Z,10.90
2019-05-30T04:01:10.149Z,10.90
2019-05-30T04:03:51.204Z,11.00
2019-05-30T04:06:27.175Z,11.00
2019-05-30T04:09:01.135Z,11.20
2019-05-30T04:11:43.349Z,11.20
2019-05-30T04:14:16.308Z,11.20
2019-05-30T04:16:45.646Z,11.30
2019-05-30T04:19:15.646Z,11.30
2019-05-30T04:21:45.604Z,11.30
2019-05-30T04:24:16.337Z,11.30
2019-05-30T04:26:45.788Z,11.30
2019-05-30T04:29:16.623Z,11.30
2019-05-30T04:31:45.735Z,11.40
2019-05-30T04:34:16.361Z,11.40
2019-05-30T04:36:45.499Z,11.40
2019-05-30T04:39:15.093Z,11.40
2019-05-30T04:41:44.167Z,11.50
2019-05-30T04:44:14.547Z,11.50
2019-05-30T04:46:43.836Z,11.60
2019-05-30T04:49:14.447Z,11.70
2019-05-30T04:51:43.967Z,11.70
2019-05-30T04:54:14.510Z,11.80
2019-05-30T04:56:43.713Z,11.90
2019-05-30T04:59:12.989Z,12.00
2019-05-30T05:01:42.016Z,12.00
2019-05-30T05:04:11.462Z,12.10
2019-05-30T05:06:40.606Z,12.10
2019-05-30T05:09:09.668Z,12.10
2019-05-30T05:11:39.511Z,12.10
2019-05-30T05:14:08.747Z,12.10
2019-05-30T05:16:37.748Z,12.20
2019-05-30T05:19:06.767Z,12.10
2019-05-30T05:21:35.694Z,12.30
2019-05-30T05:24:04.771Z,12.40
2019-05-30T05:26:33.720Z,12.40
2019-05-30T05:29:02.741Z,12.40
2019-05-30T05:31:31.651Z,12.50
2019-05-30T05:34:00.637Z,12.50
2019-05-30T05:36:30.029Z,12.60
2019-05-30T05:38:59.014Z,12.70
2019-05-30T05:41:28.625Z,12.90
2019-05-30T05:43:57.807Z,13.00
2019-05-30T05:46:26.805Z,13.20
2019-05-30T05:48:55.784Z,13.30
2019-05-30T05:51:25.100Z,13.40
2019-05-30T05:53:54.138Z,13.50
2019-05-30T05:56:23.231Z,13.50
2019-05-30T05:58:52.651Z,13.60
2019-05-30T06:01:23.295Z,13.70
2019-05-30T06:03:52.454Z,13.70
2019-05-30T06:06:21.967Z,13.80
2019-05-30T06:08:51.331Z,13.80
2019-05-30T06:11:24.613Z,13.90
2019-05-30T06:13:56.007Z,14.00
2019-05-30T06:16:33.224Z,14.10
2019-05-30T06:19:02.292Z,14.20
2019-05-30T06:21:31.519Z,14.20
2019-05-30T06:24:00.659Z,14.20
2019-05-30T06:26:29.789Z,14.40
2019-05-30T06:28:59.309Z,14.40
2019-05-30T06:31:28.734Z,14.50
2019-05-30T06:33:57.812Z,14.50
2019-05-30T06:36:27.271Z,14.50
2019-05-30T06:38:59.690Z,14.50
2019-05-30T06:41:29.825Z,14.60
2019-05-30T06:43:59.013Z,14.70
2019-05-30T06:46:28.469Z,14.80
2019-05-30T06:49:04.625Z,14.90
2019-05-30T06:51:33.599Z,14.90
2019-05-30T06:54:02.538Z,14.90
2019-05-30T06:56:31.610Z,15.10
2019-05-30T06:59:00.757Z,15.20
2019-05-30T07:01:30.116Z,15.30
2019-05-30T07:03:59.276Z,15.40
2019-05-30T07:06:29.553Z,15.40
2019-05-30T07:08:58.845Z,15.50
2019-05-30T07:11:29.288Z,15.50
2019-05-30T07:13:58.328Z,15.40
2019-05-30T07:16:27.458Z,15.50
2019-05-30T07:18:56.418Z,15.60
2019-05-30T07:21:25.565Z,15.60
2019-05-30T07:23:54.533Z,15.70
2019-05-30T07:26:23.863Z,15.80
2019-05-30T07:28:52.719Z,15.90
2019-05-30T07:31:21.577Z,16.00
2019-05-30T07:33:50.484Z,16.00
2019-05-30T07:36:19.328Z,16.00
2019-05-30T07:38:48.202Z,16.00
2019-05-30T07:41:17.296Z,16.10
2019-05-30T07:43:46.215Z,16.20
2019-05-30T07:46:15.179Z,16.30
2019-05-30T07:48:44.214Z,16.60
2019-05-30T07:51:13.560Z,16.80
2019-05-30T07:53:42.744Z,17.10
2019-05-30T07:56:11.794Z,17.30
2019-05-30T07:58:40.734Z,17.30
2019-05-30T08:01:10.371Z,17.40
2019-05-30T08:03:39.378Z,17.40
2019-05-30T08:06:08.359Z,17.50
2019-05-30T08:08:38.158Z,17.50
2019-05-30T08:11:09.803Z,17.60
2019-05-30T08:13:38.035Z,17.70
2019-05-30T08:16:08.505Z,17.70
2019-05-30T08:18:38.010Z,17.60
2019-05-30T08:21:06.904Z,17.70
2019-05-30T08:23:36.289Z,17.80
2019-05-30T08:26:05.730Z,17.90
2019-05-30T08:28:34.715Z,17.90
2019-05-30T08:31:03.830Z,18.00
2019-05-30T08:33:33.583Z,17.90
2019-05-30T08:36:05.572Z,17.80
2019-05-30T08:38:33.622Z,17.80
2019-05-30T08:41:02.668Z,17.80
2019-05-30T08:46:19.775Z,17.70
2019-05-30T08:48:48.588Z,17.60
2019-05-30T08:51:17.859Z,17.50
2019-05-30T08:53:47.020Z,17.50
2019-05-30T08:56:16.291Z,17.60
2019-05-30T08:58:45.158Z,17.60
2019-05-30T09:01:14.210Z,17.40
2019-05-30T09:03:44.122Z,17.40
2019-05-30T09:06:14.127Z,17.30
2019-05-30T09:08:44.246Z,17.20
2019-05-30T09:11:13.637Z,17.20
2019-05-30T09:13:42.800Z,17.20
2019-05-30T09:16:12.798Z,17.10
2019-05-30T09:18:43.093Z,16.90
2019-05-30T09:21:12.404Z,16.90
2019-05-30T09:23:42.260Z,16.80
2019-05-30T09:26:12.078Z,16.70
2019-05-30T09:28:42.241Z,16.70
2019-05-30T09:31:12.377Z,16.70
2019-05-30T09:33:42.770Z,16.60
2019-05-30T09:36:14.879Z,16.60
2019-05-30T09:38:45.384Z,16.40
2019-05-30T09:41:14.645Z,16.40
2019-05-30T09:43:44.737Z,16.40
2019-05-30T09:46:14.614Z,16.40
2019-05-30T09:48:44.741Z,16.30
2019-05-30T09:51:14.117Z,16.30
2019-05-30T09:53:43.875Z,16.40
2019-05-30T09:56:12.952Z,16.40
2019-05-30T09:58:42.735Z,16.60
2019-05-30T10:01:12.910Z,16.70
2019-05-30T10:03:43.296Z,16.70
2019-05-30T10:06:28.199Z,16.70
2019-05-30T10:08:49.568Z,16.80
2019-05-30T10:11:19.552Z,16.80
2019-05-30T10:13:51.218Z,16.90
2019-05-30T10:16:23.540Z,16.80
2019-05-30T10:18:54.969Z,16.70
2019-05-30T10:21:23.795Z,16.50
2019-05-30T10:23:53.741Z,16.40
2019-05-30T10:26:22.937Z,16.30
2019-05-30T10:28:53.235Z,16.20
2019-05-30T10:31:22.329Z,16.00
2019-05-30T10:33:52.891Z,15.90
2019-05-30T10:36:25.071Z,15.90
2019-05-30T10:38:54.452Z,15.90
2019-05-30T10:41:23.873Z,15.90
2019-05-30T10:43:53.744Z,15.90
2019-05-30T10:46:23.900Z,15.90
2019-05-30T10:48:54.739Z,16.00
2019-05-30T10:51:23.820Z,16.10
2019-05-30T10:53:56.739Z,16.20
2019-05-30T10:56:26.337Z,16.20
2019-05-30T10:58:55.789Z,16.20
2019-05-30T11:01:24.900Z,16.30
2019-05-30T11:03:54.871Z,16.30
2019-05-30T11:07:11.433Z,16.30
2019-05-30T11:09:41.978Z,16.50
2019-05-30T11:15:39.468Z,16.60
2019-05-30T11:18:08.547Z,16.60
2019-05-30T11:20:38.291Z,16.60
2019-05-30T11:23:07.456Z,16.80
2019-05-30T11:25:36.597Z,16.90
2019-05-30T11:28:18.356Z,17.10
2019-05-30T11:30:48.545Z,17.30
2019-05-30T11:33:17.508Z,17.50
2019-05-30T11:35:46.526Z,17.50
2019-05-30T11:38:15.331Z,17.60
2019-05-30T11:40:44.126Z,17.80
2019-05-30T11:43:12.998Z,17.80
2019-05-30T11:45:41.999Z,17.90
2019-05-30T11:48:10.846Z,18.10
2019-05-30T11:50:39.675Z,18.20
2019-05-30T11:53:08.457Z,18.50
2019-05-30T11:55:37.358Z,18.60
2019-05-30T11:58:06.316Z,18.60
2019-05-30T12:04:03.196Z,18.60
2019-05-30T12:06:32.181Z,18.60
2019-05-30T12:09:01.203Z,18.60
2019-05-30T12:11:30.149Z,18.60
2019-05-30T12:13:59.503Z,18.70
2019-05-30T12:16:28.644Z,18.80
2019-05-30T12:18:58.078Z,18.80
2019-05-30T12:21:29.818Z,18.70
2019-05-30T12:23:58.112Z,18.80
2019-05-30T12:26:27.036Z,18.80
2019-05-30T12:28:56.040Z,18.90
2019-05-30T12:31:25.016Z,18.90
2019-05-30T12:33:54.218Z,18.80
2019-05-30T12:36:23.278Z,18.70
2019-05-30T12:38:52.281Z,18.60
2019-05-30T12:41:21.217Z,18.60
2019-05-30T12:43:50.167Z,18.60
2019-05-30T12:46:19.062Z,18.50
2019-05-30T12:48:47.917Z,18.50
2019-05-30T12:51:16.811Z,18.40
2019-05-30T12:53:45.693Z,18.40
2019-05-30T12:56:14.547Z,18.40
2019-05-30T12:58:43.461Z,18.40
2019-05-30T13:01:12.499Z,18.30
2019-05-30T13:03:41.364Z,18.20
2019-05-30T13:06:10.406Z,18.10
2019-05-30T13:08:39.295Z,18.10
2019-05-30T13:11:08.234Z,18.20
2019-05-30T13:13:37.157Z,18.20
2019-05-30T13:16:08.503Z,18.20
2019-05-30T13:18:36.721Z,18.40
2019-05-30T13:21:06.312Z,18.50
2019-05-30T13:23:35.447Z,18.60
2019-05-30T13:26:05.802Z,18.70
2019-05-30T13:28:34.867Z,18.80
2019-05-30T13:31:04.486Z,18.90
2019-05-30T13:33:34.255Z,19.00
2019-05-30T13:36:03.161Z,19.10
2019-05-30T13:38:31.985Z,19.20
2019-05-30T13:41:01.522Z,19.40
2019-05-30T13:43:30.550Z,19.50
2019-05-30T13:46:00.152Z,19.50
2019-05-30T13:48:29.523Z,19.60
2019-05-30T13:50:58.676Z,19.50
2019-05-30T13:53:27.962Z,19.40
2019-05-30T13:55:56.962Z,19.30
2019-05-30T13:58:25.976Z,19.30
2019-05-30T14:00:54.862Z,19.30
2019-05-30T14:03:23.962Z,19.20
2019-05-30T14:05:52.869Z,19.30
2019-05-30T14:08:21.697Z,19.30
2019-05-30T14:10:50.554Z,19.30
2019-05-30T14:13:19.541Z,19.20
2019-05-30T14:15:48.561Z,19.20
2019-05-30T14:18:20.418Z,19.20
2019-05-30T14:20:49.234Z,19.20
2019-05-30T14:23:18.173Z,19.10
2019-05-30T14:25:47.127Z,19.10
2019-05-30T14:28:16.070Z,19.00
2019-05-30T14:30:44.956Z,19.00
2019-05-30T14:33:13.820Z,19.00
2019-05-30T14:35:42.764Z,19.00
2019-05-30T14:38:12.646Z,19.10
2019-05-30T14:40:41.729Z,19.00
2019-05-30T14:43:11.520Z,19.10
2019-05-30T14:45:40.552Z,19.00
2019-05-30T14:48:10.605Z,18.90
2019-05-30T14:50:39.570Z,18.80
2019-05-30T14:53:08.839Z,18.80
2019-05-30T14:55:38.358Z,18.70
2019-05-30T14:58:07.436Z,18.70
2019-05-30T15:00:36.534Z,18.80
2019-05-30T15:03:09.205Z,18.90
2019-05-30T15:05:36.199Z,18.90
2019-05-30T15:08:06.407Z,18.90
2019-05-30T15:10:35.438Z,18.80
2019-05-30T15:13:05.410Z,18.80
2019-05-30T15:15:34.377Z,18.80
2019-05-30T15:18:03.201Z,18.90
2019-05-30T15:20:32.251Z,18.80
2019-05-30T15:23:01.076Z,18.80
2019-05-30T15:25:30.102Z,18.70
2019-05-30T15:27:59.133Z,18.70
2019-05-30T15:30:28.073Z,18.60
2019-05-30T15:32:56.872Z,18.60
2019-05-30T15:35:25.872Z,18.50
2019-05-30T15:37:55.039Z,18.60
2019-05-30T15:40:24.116Z,18.70
2019-05-30T15:42:53.270Z,18.90
2019-05-30T15:45:22.451Z,19.10
2019-05-30T15:47:51.437Z,19.30
2019-05-30T15:50:20.348Z,19.40
2019-05-30T15:52:49.260Z,19.40
2019-05-30T15:55:23.159Z,19.50
2019-05-30T15:57:51.371Z,19.60
2019-05-30T16:00:20.783Z,19.60
2019-05-30T16:02:49.685Z,19.80
2019-05-30T16:05:18.793Z,20.00
2019-05-30T16:07:47.932Z,20.30
2019-05-30T16:10:18.903Z,20.50
2019-05-30T16:12:47.929Z,20.60
2019-05-30T16:15:17.591Z,20.50
2019-05-30T16:17:46.577Z,20.60
2019-05-30T16:20:15.953Z,20.60
2019-05-30T16:22:45.087Z,20.60
2019-05-30T16:25:15.697Z,20.70
2019-05-30T16:27:44.857Z,20.70
2019-05-30T16:30:19.753Z,20.60
2019-05-30T16:32:45.558Z,20.60
2019-05-30T16:35:15.988Z,20.50
2019-05-30T16:37:45.360Z,20.40
2019-05-30T16:40:14.599Z,20.30
2019-05-30T16:42:43.574Z,20.30
2019-05-30T16:45:18.224Z,20.20
2019-05-30T16:47:43.926Z,20.00
2019-05-30T16:50:14.701Z,19.90
2019-05-30T16:52:43.771Z,19.90
2019-05-30T16:55:13.629Z,19.80
2019-05-30T16:57:42.506Z,19.80
2019-05-30T17:00:12.995Z,19.70
2019-05-30T17:02:41.955Z,19.60
2019-05-30T17:05:11.779Z,19.60
2019-05-30T17:07:40.742Z,19.60
2019-05-30T17:10:22.045Z,19.50
2019-05-30T17:12:40.574Z,19.40
2019-05-30T17:15:11.180Z,19.40
2019-05-30T17:17:40.020Z,19.30
2019-05-30T17:20:10.785Z,19.20
2019-05-30T17:22:39.831Z,19.10
2019-05-30T17:25:10.666Z,19.10
2019-05-30T17:27:39.543Z,19.10
2019-05-30T17:30:09.716Z,19.10
2019-05-30T17:32:38.987Z,19.10
2019-05-30T17:35:59.655Z,19.20
2019-05-30T17:38:34.338Z,19.20
2019-05-30T17:45:15.734Z,19.00
2019-05-30T17:48:16.324Z,19.00
2019-05-30T17:51:25.882Z,19.00
2019-05-30T18:09:11.178Z,18.50
2019-05-30T18:11:45.924Z,18.40
2019-05-30T18:14:18.448Z,18.40
2019-05-30T18:16:51.260Z,18.40
2019-05-30T18:19:31.535Z,18.30
2019-05-30T18:22:08.067Z,18.30
2019-05-30T18:24:51.163Z,18.30
2019-05-30T18:28:14.680Z,18.20
2019-05-30T18:31:16.980Z,18.20
2019-05-30T18:33:46.219Z,18.10
2019-05-30T18:36:49.489Z,18.10
2019-05-30T18:39:10.190Z,18.10
2019-05-30T18:41:39.922Z,18.10
2019-05-30T18:44:11.351Z,18.10
2019-05-30T18:47:07.375Z,18.20
2019-05-30T18:49:38.541Z,18.10
2019-05-30T18:52:19.253Z,18.10
2019-05-30T18:54:58.982Z,18.10
2019-05-30T18:57:37.323Z,18.10
2019-05-30T19:00:09.516Z,18.10
2019-05-30T19:03:13.235Z,18.00
2019-05-30T19:05:48.207Z,18.00
2019-05-30T19:08:16.389Z,18.00
2019-05-30T19:14:44.852Z,18.10
2019-05-30T19:39:54.549Z,17.90
2019-05-30T19:42:25.656Z,17.90
2019-05-30T19:44:54.794Z,17.80
2019-05-30T19:47:25.712Z,17.90
2019-05-30T19:50:03.979Z,17.80
2019-05-30T19:52:36.907Z,17.80
2019-05-30T19:55:06.739Z,17.70
2019-05-30T19:57:35.949Z,17.70
2019-05-30T20:00:06.653Z,17.80
2019-05-30T20:02:36.192Z,17.90
2019-05-30T20:05:12.208Z,17.90
2019-05-30T20:07:47.182Z,18.00
2019-05-30T20:10:19.973Z,17.90
2019-05-30T20:12:51.883Z,17.90
2019-05-30T20:15:35.480Z,17.80
2019-05-30T20:18:00.832Z,17.70
2019-05-30T20:20:47.743Z,17.70
2019-05-30T20:23:00.936Z,17.70
2019-05-30T20:25:30.580Z,17.70
2019-05-30T20:27:59.504Z,17.70
2019-05-30T20:30:29.216Z,17.70
2019-05-30T20:32:58.411Z,17.70
2019-05-30T20:35:27.431Z,17.70
2019-05-30T20:37:56.654Z,17.70
2019-05-30T20:40:25.836Z,17.80
2019-05-30T20:42:54.876Z,17.80
2019-05-30T20:45:23.911Z,17.80
2019-05-30T20:47:52.811Z,17.80
2019-05-30T20:50:22.437Z,17.70
2019-05-30T20:52:51.565Z,17.50
2019-05-30T20:55:21.212Z,17.40
2019-05-30T20:57:51.181Z,17.40
2019-05-30T21:00:24.380Z,17.40
2019-05-30T21:02:54.131Z,17.50
2019-05-30T21:05:23.646Z,17.50
2019-05-30T21:08:27.637Z,17.50
2019-05-30T21:11:05.545Z,17.50
2019-05-30T21:13:36.085Z,17.50
2019-05-30T21:16:06.558Z,17.50
2019-05-30T21:18:37.751Z,17.40
2019-05-30T21:21:06.929Z,17.40
2019-05-30T21:23:36.257Z,17.20
2019-05-30T21:26:05.572Z,17.20
2019-05-30T21:28:36.634Z,17.20
2019-05-30T21:31:05.787Z,17.10
2019-05-30T21:33:34.908Z,17.00
2019-05-30T21:36:04.010Z,16.90
2019-05-30T21:38:34.270Z,16.90
2019-05-30T21:41:03.170Z,16.90
2019-05-30T21:43:32.231Z,16.80
2019-05-30T21:46:01.389Z,16.80
2019-05-30T21:48:30.539Z,16.80
2019-05-30T21:50:59.580Z,16.80
2019-05-30T21:53:28.615Z,16.80
2019-05-30T21:55:57.711Z,16.80
2019-05-30T21:58:26.613Z,16.80
2019-05-30T22:01:37.369Z,16.80
2019-05-30T22:04:08.109Z,16.80
2019-05-30T22:06:38.270Z,16.80
2019-05-30T22:09:09.407Z,16.80
2019-05-30T22:11:39.028Z,16.70
2019-05-30T22:14:09.125Z,16.70
2019-05-30T22:16:38.122Z,16.70
2019-05-30T22:19:07.343Z,16.60
2019-05-30T22:21:36.821Z,16.60
2019-05-30T22:24:10.894Z,16.60
2019-05-30T22:26:44.536Z,16.60
2019-05-30T22:29:19.108Z,16.50
2019-05-30T22:31:48.746Z,16.50
2019-05-30T22:34:23.833Z,16.50
2019-05-30T22:36:57.628Z,16.50
2019-05-30T22:39:26.705Z,16.50
2019-05-30T22:41:56.408Z,16.40
2019-05-30T22:44:25.587Z,16.40
2019-05-30T22:46:54.542Z,16.40
2019-05-30T22:49:23.379Z,16.50
2019-05-30T22:51:53.193Z,16.60
2019-05-30T22:54:47.343Z,16.60
2019-05-30T22:57:16.193Z,16.60
2019-05-30T22:59:45.033Z,16.60
2019-05-30T23:02:13.973Z,16.50
2019-05-30T23:04:45.779Z,16.40
2019-05-30T23:07:15.073Z,16.40
2019-05-30T23:09:45.556Z,16.40
2019-05-30T23:12:14.960Z,16.40
2019-05-30T23:14:44.159Z,16.40
2019-05-30T23:17:13.278Z,16.50
2019-05-30T23:19:42.264Z,16.60
2019-05-30T23:22:11.630Z,16.60
2019-05-30T23:24:40.621Z,16.60
2019-05-30T23:27:09.510Z,16.60
2019-05-30T23:29:38.511Z,16.60
2019-05-30T23:32:07.678Z,16.50
2019-05-30T23:34:36.825Z,16.50
2019-05-30T23:37:05.995Z,16.40
2019-05-30T23:39:35.062Z,16.30
2019-05-30T23:42:04.379Z,16.30
2019-05-30T23:44:33.327Z,16.20
2019-05-30T23:47:02.635Z,16.20
2019-05-30T23:49:42.549Z,16.10
2019-05-30T23:52:42.677Z,16.00
2019-05-30T23:55:11.298Z,16.00
2019-05-30T23:58:06.012Z,16.00
